sensor_id;sensor_type;location;lat;lon;timestamp;P1;durP1;ratioP1;P2;durP2;ratioP2
17382;SDS011;8809;51.892;8.384;2022-07-26T00:00:42;4.25;;;1.05;;
17382;SDS011;8809;51.892;8.384;2022-07-26T00:03:09;1.85;;;1.00;;
17382;SDS011;8809;51.892;8.384;2022-07-26T00:05:37;3.33;;;1.10;;
17382;SDS011;8809;51.892;8.384;2022-07-26T00:08:05;2.70;;;1.10;;
17382;SDS011;8809;51.892;8.384;2022-07-26T00:10:40;4.30;;;1.10;;
17382;SDS011;8809;51.892;8.384;2022-07-26T00:13:10;2.75;;;0.90;;
17382;SDS011;8809;51.892;8.384;2022-07-26T00:15:37;2.30;;;0.88;;
17382;SDS011;8809;51.892;8.384;2022-07-26T00:18:05;4.45;;;1.50;;
17382;SDS011;8809;51.892;8.384;2022-07-26T00:20:32;2.40;;;1.10;;
17382;SDS011;8809;51.892;8.384;2022-07-26T00:23:00;2.90;;;1.00;;
17382;SDS011;8809;51.892;8.384;2022-07-26T00:25:27;2.42;;;0.93;;
17382;SDS011;8809;51.892;8.384;2022-07-26T00:27:54;1.63;;;1.13;;
17382;SDS011;8809;51.892;8.384;2022-07-26T00:30:23;2.83;;;1.10;;
17382;SDS011;8809;51.892;8.384;2022-07-26T00:32:50;1.23;;;1.00;;
17382;SDS011;8809;51.892;8.384;2022-07-26T00:35:18;3.00;;;1.08;;
17382;SDS011;8809;51.892;8.384;2022-07-26T00:37:45;2.47;;;0.90;;
17382;SDS011;8809;51.892;8.384;2022-07-26T00:40:12;2.72;;;1.13;;
17382;SDS011;8809;51.892;8.384;2022-07-26T00:42:41;2.28;;;0.80;;
17382;SDS011;8809;51.892;8.384;2022-07-26T00:45:09;2.13;;;1.02;;
17382;SDS011;8809;51.892;8.384;2022-07-26T00:47:39;2.65;;;1.10;;
17382;SDS011;8809;51.892;8.384;2022-07-26T00:50:10;5.45;;;1.20;;
17382;SDS011;8809;51.892;8.384;2022-07-26T00:52:40;4.70;;;1.13;;
17382;SDS011;8809;51.892;8.384;2022-07-26T00:55:08;4.18;;;1.20;;
17382;SDS011;8809;51.892;8.384;2022-07-26T00:57:36;2.92;;;1.23;;
17382;SDS011;8809;51.892;8.384;2022-07-26T01:00:04;2.40;;;0.93;;
17382;SDS011;8809;51.892;8.384;2022-07-26T01:02:35;3.50;;;0.98;;
17382;SDS011;8809;51.892;8.384;2022-07-26T01:05:04;2.42;;;1.20;;
17382;SDS011;8809;51.892;8.384;2022-07-26T01:07:32;4.93;;;1.13;;
17382;SDS011;8809;51.892;8.384;2022-07-26T01:10:08;3.60;;;1.30;;
17382;SDS011;8809;51.892;8.384;2022-07-26T01:12:36;2.88;;;1.20;;
17382;SDS011;8809;51.892;8.384;2022-07-26T01:15:04;3.42;;;1.10;;
17382;SDS011;8809;51.892;8.384;2022-07-26T01:17:32;4.45;;;1.20;;
17382;SDS011;8809;51.892;8.384;2022-07-26T01:19:59;3.03;;;1.17;;
17382;SDS011;8809;51.892;8.384;2022-07-26T01:22:30;2.30;;;1.15;;
17382;SDS011;8809;51.892;8.384;2022-07-26T01:24:57;3.40;;;1.50;;
17382;SDS011;8809;51.892;8.384;2022-07-26T01:27:24;3.45;;;1.15;;
17382;SDS011;8809;51.892;8.384;2022-07-26T01:29:52;5.45;;;1.30;;
17382;SDS011;8809;51.892;8.384;2022-07-26T01:32:19;3.40;;;1.45;;
17382;SDS011;8809;51.892;8.384;2022-07-26T01:34:46;2.72;;;1.10;;
17382;SDS011;8809;51.892;8.384;2022-07-26T01:37:13;4.05;;;1.30;;
17382;SDS011;8809;51.892;8.384;2022-07-26T01:39:41;5.18;;;1.73;;
17382;SDS011;8809;51.892;8.384;2022-07-26T01:42:10;3.45;;;1.23;;
17382;SDS011;8809;51.892;8.384;2022-07-26T01:44:36;3.63;;;1.40;;
17382;SDS011;8809;51.892;8.384;2022-07-26T01:47:04;3.78;;;1.13;;
17382;SDS011;8809;51.892;8.384;2022-07-26T01:49:32;4.03;;;1.27;;
17382;SDS011;8809;51.892;8.384;2022-07-26T01:51:59;4.57;;;1.48;;
17382;SDS011;8809;51.892;8.384;2022-07-26T01:54:27;8.38;;;1.70;;
17382;SDS011;8809;51.892;8.384;2022-07-26T01:56:55;4.07;;;1.40;;
17382;SDS011;8809;51.892;8.384;2022-07-26T01:59:22;2.67;;;1.30;;
17382;SDS011;8809;51.892;8.384;2022-07-26T02:01:49;2.95;;;1.27;;
17382;SDS011;8809;51.892;8.384;2022-07-26T02:04:17;2.97;;;1.38;;
17382;SDS011;8809;51.892;8.384;2022-07-26T02:07:09;5.32;;;1.20;;
17382;SDS011;8809;51.892;8.384;2022-07-26T02:09:36;2.92;;;1.10;;
17382;SDS011;8809;51.892;8.384;2022-07-26T02:12:05;4.07;;;1.40;;
17382;SDS011;8809;51.892;8.384;2022-07-26T02:14:33;4.75;;;1.10;;
17382;SDS011;8809;51.892;8.384;2022-07-26T02:17:00;1.63;;;1.30;;
17382;SDS011;8809;51.892;8.384;2022-07-26T02:19:27;5.00;;;1.25;;
17382;SDS011;8809;51.892;8.384;2022-07-26T02:21:55;3.78;;;1.30;;
17382;SDS011;8809;51.892;8.384;2022-07-26T02:24:22;3.78;;;1.83;;
17382;SDS011;8809;51.892;8.384;2022-07-26T02:26:51;3.33;;;1.52;;
17382;SDS011;8809;51.892;8.384;2022-07-26T02:29:19;1.70;;;1.20;;
17382;SDS011;8809;51.892;8.384;2022-07-26T02:31:46;2.65;;;1.30;;
17382;SDS011;8809;51.892;8.384;2022-07-26T02:34:14;2.22;;;1.17;;
17382;SDS011;8809;51.892;8.384;2022-07-26T02:36:41;2.63;;;1.30;;
17382;SDS011;8809;51.892;8.384;2022-07-26T02:39:08;2.47;;;1.08;;
17382;SDS011;8809;51.892;8.384;2022-07-26T02:41:35;3.67;;;1.23;;
17382;SDS011;8809;51.892;8.384;2022-07-26T02:44:03;2.90;;;1.30;;
17382;SDS011;8809;51.892;8.384;2022-07-26T02:46:32;3.60;;;1.50;;
17382;SDS011;8809;51.892;8.384;2022-07-26T02:48:59;3.08;;;1.23;;
17382;SDS011;8809;51.892;8.384;2022-07-26T02:51:27;3.45;;;1.20;;
17382;SDS011;8809;51.892;8.384;2022-07-26T02:53:54;1.65;;;1.00;;
17382;SDS011;8809;51.892;8.384;2022-07-26T02:56:21;2.75;;;1.40;;
17382;SDS011;8809;51.892;8.384;2022-07-26T02:58:48;4.28;;;1.40;;
17382;SDS011;8809;51.892;8.384;2022-07-26T03:01:15;2.22;;;1.45;;
17382;SDS011;8809;51.892;8.384;2022-07-26T03:03:44;2.35;;;1.33;;
17382;SDS011;8809;51.892;8.384;2022-07-26T03:06:11;4.22;;;1.73;;
17382;SDS011;8809;51.892;8.384;2022-07-26T03:08:38;3.85;;;1.80;;
17382;SDS011;8809;51.892;8.384;2022-07-26T03:11:05;4.57;;;1.40;;
17382;SDS011;8809;51.892;8.384;2022-07-26T03:13:32;2.15;;;1.50;;
17382;SDS011;8809;51.892;8.384;2022-07-26T03:16:00;4.57;;;1.55;;
17382;SDS011;8809;51.892;8.384;2022-07-26T03:18:27;2.95;;;1.50;;
17382;SDS011;8809;51.892;8.384;2022-07-26T03:20:55;3.50;;;1.55;;
17382;SDS011;8809;51.892;8.384;2022-07-26T03:23:22;4.68;;;1.50;;
17382;SDS011;8809;51.892;8.384;2022-07-26T03:25:49;5.05;;;1.80;;
17382;SDS011;8809;51.892;8.384;2022-07-26T03:28:17;4.18;;;1.80;;
17382;SDS011;8809;51.892;8.384;2022-07-26T03:30:44;3.28;;;1.58;;
17382;SDS011;8809;51.892;8.384;2022-07-26T03:33:11;3.00;;;1.50;;
17382;SDS011;8809;51.892;8.384;2022-07-26T03:35:38;2.42;;;1.60;;
17382;SDS011;8809;51.892;8.384;2022-07-26T03:38:07;3.78;;;1.75;;
17382;SDS011;8809;51.892;8.384;2022-07-26T03:40:34;3.50;;;1.85;;
17382;SDS011;8809;51.892;8.384;2022-07-26T03:43:01;3.13;;;1.42;;
17382;SDS011;8809;51.892;8.384;2022-07-26T03:45:28;4.90;;;1.90;;
17382;SDS011;8809;51.892;8.384;2022-07-26T03:47:55;3.90;;;1.70;;
17382;SDS011;8809;51.892;8.384;2022-07-26T03:50:23;4.15;;;1.60;;
17382;SDS011;8809;51.892;8.384;2022-07-26T03:52:50;5.45;;;1.85;;
17382;SDS011;8809;51.892;8.384;2022-07-26T03:55:18;4.35;;;1.50;;
17382;SDS011;8809;51.892;8.384;2022-07-26T03:58:03;3.00;;;1.48;;
17382;SDS011;8809;51.892;8.384;2022-07-26T04:00:32;4.53;;;1.92;;
17382;SDS011;8809;51.892;8.384;2022-07-26T04:02:59;5.82;;;1.95;;
17382;SDS011;8809;51.892;8.384;2022-07-26T04:05:26;4.00;;;1.65;;
17382;SDS011;8809;51.892;8.384;2022-07-26T04:07:53;6.55;;;2.25;;
17382;SDS011;8809;51.892;8.384;2022-07-26T04:10:22;5.63;;;1.85;;
17382;SDS011;8809;51.892;8.384;2022-07-26T04:12:49;3.55;;;1.80;;
17382;SDS011;8809;51.892;8.384;2022-07-26T04:15:16;4.63;;;1.80;;
17382;SDS011;8809;51.892;8.384;2022-07-26T04:17:45;3.03;;;1.65;;
17382;SDS011;8809;51.892;8.384;2022-07-26T04:20:13;4.07;;;1.77;;
17382;SDS011;8809;51.892;8.384;2022-07-26T04:22:41;5.68;;;1.90;;
17382;SDS011;8809;51.892;8.384;2022-07-26T04:25:09;4.28;;;1.58;;
17382;SDS011;8809;51.892;8.384;2022-07-26T04:27:37;3.53;;;1.52;;
17382;SDS011;8809;51.892;8.384;2022-07-26T04:30:05;6.80;;;2.17;;
17382;SDS011;8809;51.892;8.384;2022-07-26T04:32:33;4.03;;;1.90;;
17382;SDS011;8809;51.892;8.384;2022-07-26T04:35:00;4.40;;;2.08;;
17382;SDS011;8809;51.892;8.384;2022-07-26T04:37:27;4.90;;;2.33;;
17382;SDS011;8809;51.892;8.384;2022-07-26T04:39:57;6.00;;;2.10;;
17382;SDS011;8809;51.892;8.384;2022-07-26T04:42:24;4.05;;;2.10;;
17382;SDS011;8809;51.892;8.384;2022-07-26T04:44:53;4.60;;;1.90;;
17382;SDS011;8809;51.892;8.384;2022-07-26T04:47:20;4.70;;;1.70;;
17382;SDS011;8809;51.892;8.384;2022-07-26T04:49:47;3.75;;;1.80;;
17382;SDS011;8809;51.892;8.384;2022-07-26T04:52:14;4.90;;;2.30;;
17382;SDS011;8809;51.892;8.384;2022-07-26T04:54:41;6.68;;;2.08;;
17382;SDS011;8809;51.892;8.384;2022-07-26T04:57:08;3.80;;;1.75;;
17382;SDS011;8809;51.892;8.384;2022-07-26T04:59:35;4.82;;;2.13;;
17382;SDS011;8809;51.892;8.384;2022-07-26T05:02:04;5.72;;;2.47;;
17382;SDS011;8809;51.892;8.384;2022-07-26T05:04:31;3.47;;;1.98;;
17382;SDS011;8809;51.892;8.384;2022-07-26T05:06:58;7.35;;;2.90;;
17382;SDS011;8809;51.892;8.384;2022-07-26T05:09:27;4.10;;;2.25;;
17382;SDS011;8809;51.892;8.384;2022-07-26T05:11:55;10.35;;;2.85;;
17382;SDS011;8809;51.892;8.384;2022-07-26T05:14:22;3.85;;;2.38;;
17382;SDS011;8809;51.892;8.384;2022-07-26T05:16:50;3.42;;;2.30;;
17382;SDS011;8809;51.892;8.384;2022-07-26T05:19:19;4.25;;;2.00;;
17382;SDS011;8809;51.892;8.384;2022-07-26T05:21:46;6.38;;;2.90;;
17382;SDS011;8809;51.892;8.384;2022-07-26T05:24:13;4.15;;;2.33;;
17382;SDS011;8809;51.892;8.384;2022-07-26T05:26:40;5.10;;;2.63;;
17382;SDS011;8809;51.892;8.384;2022-07-26T05:29:07;5.55;;;2.55;;
17382;SDS011;8809;51.892;8.384;2022-07-26T05:31:34;3.58;;;1.90;;
17382;SDS011;8809;51.892;8.384;2022-07-26T05:34:01;3.28;;;2.05;;
17382;SDS011;8809;51.892;8.384;2022-07-26T05:36:30;6.47;;;2.92;;
17382;SDS011;8809;51.892;8.384;2022-07-26T05:38:57;4.93;;;2.40;;
17382;SDS011;8809;51.892;8.384;2022-07-26T05:41:24;6.75;;;2.70;;
17382;SDS011;8809;51.892;8.384;2022-07-26T05:43:51;4.43;;;2.20;;
17382;SDS011;8809;51.892;8.384;2022-07-26T05:46:19;8.75;;;3.20;;
17382;SDS011;8809;51.892;8.384;2022-07-26T05:48:46;6.32;;;3.20;;
17382;SDS011;8809;51.892;8.384;2022-07-26T05:51:13;4.90;;;2.70;;
17382;SDS011;8809;51.892;8.384;2022-07-26T05:53:41;10.13;;;3.50;;
17382;SDS011;8809;51.892;8.384;2022-07-26T05:56:08;7.43;;;3.00;;
17382;SDS011;8809;51.892;8.384;2022-07-26T05:58:36;7.85;;;3.67;;
17382;SDS011;8809;51.892;8.384;2022-07-26T06:01:03;8.35;;;4.05;;
17382;SDS011;8809;51.892;8.384;2022-07-26T06:03:30;8.27;;;3.75;;
17382;SDS011;8809;51.892;8.384;2022-07-26T06:05:57;7.22;;;3.58;;
17382;SDS011;8809;51.892;8.384;2022-07-26T06:08:24;6.45;;;3.20;;
17382;SDS011;8809;51.892;8.384;2022-07-26T06:10:53;7.13;;;3.55;;
17382;SDS011;8809;51.892;8.384;2022-07-26T06:13:21;5.63;;;3.38;;
17382;SDS011;8809;51.892;8.384;2022-07-26T06:15:49;8.02;;;4.07;;
17382;SDS011;8809;51.892;8.384;2022-07-26T06:18:17;6.70;;;4.25;;
17382;SDS011;8809;51.892;8.384;2022-07-26T06:20:45;8.68;;;4.55;;
17382;SDS011;8809;51.892;8.384;2022-07-26T06:23:13;9.07;;;4.38;;
17382;SDS011;8809;51.892;8.384;2022-07-26T06:25:41;6.00;;;3.40;;
17382;SDS011;8809;51.892;8.384;2022-07-26T06:28:09;9.55;;;4.63;;
17382;SDS011;8809;51.892;8.384;2022-07-26T06:30:37;10.23;;;4.57;;
17382;SDS011;8809;51.892;8.384;2022-07-26T06:33:04;10.48;;;4.50;;
17382;SDS011;8809;51.892;8.384;2022-07-26T06:35:33;9.75;;;4.35;;
17382;SDS011;8809;51.892;8.384;2022-07-26T06:38:03;9.90;;;3.88;;
17382;SDS011;8809;51.892;8.384;2022-07-26T06:40:31;7.95;;;3.97;;
17382;SDS011;8809;51.892;8.384;2022-07-26T06:42:58;7.20;;;3.70;;
17382;SDS011;8809;51.892;8.384;2022-07-26T06:45:27;10.20;;;3.88;;
17382;SDS011;8809;51.892;8.384;2022-07-26T06:47:54;7.15;;;4.00;;
17382;SDS011;8809;51.892;8.384;2022-07-26T06:50:22;6.93;;;3.25;;
17382;SDS011;8809;51.892;8.384;2022-07-26T06:52:49;6.45;;;3.00;;
17382;SDS011;8809;51.892;8.384;2022-07-26T06:55:16;5.25;;;2.97;;
17382;SDS011;8809;51.892;8.384;2022-07-26T06:57:43;7.93;;;3.35;;
17382;SDS011;8809;51.892;8.384;2022-07-26T07:00:11;8.27;;;3.47;;
17382;SDS011;8809;51.892;8.384;2022-07-26T07:02:40;4.95;;;3.08;;
17382;SDS011;8809;51.892;8.384;2022-07-26T07:05:07;6.30;;;2.67;;
17382;SDS011;8809;51.892;8.384;2022-07-26T07:07:36;5.70;;;3.03;;
17382;SDS011;8809;51.892;8.384;2022-07-26T07:10:06;5.72;;;2.97;;
17382;SDS011;8809;51.892;8.384;2022-07-26T07:12:34;4.55;;;2.58;;
17382;SDS011;8809;51.892;8.384;2022-07-26T07:15:01;3.95;;;2.72;;
17382;SDS011;8809;51.892;8.384;2022-07-26T07:17:28;6.18;;;2.50;;
17382;SDS011;8809;51.892;8.384;2022-07-26T07:19:56;3.33;;;2.42;;
17382;SDS011;8809;51.892;8.384;2022-07-26T07:22:25;6.97;;;2.38;;
17382;SDS011;8809;51.892;8.384;2022-07-26T07:24:52;4.35;;;2.83;;
17382;SDS011;8809;51.892;8.384;2022-07-26T07:27:19;5.85;;;2.88;;
17382;SDS011;8809;51.892;8.384;2022-07-26T07:29:46;8.05;;;3.10;;
17382;SDS011;8809;51.892;8.384;2022-07-26T07:32:13;6.10;;;3.08;;
17382;SDS011;8809;51.892;8.384;2022-07-26T07:34:40;5.30;;;3.13;;
17382;SDS011;8809;51.892;8.384;2022-07-26T07:37:09;8.10;;;3.25;;
17382;SDS011;8809;51.892;8.384;2022-07-26T07:39:37;4.75;;;3.38;;
17382;SDS011;8809;51.892;8.384;2022-07-26T07:42:04;6.03;;;3.10;;
17382;SDS011;8809;51.892;8.384;2022-07-26T07:44:31;9.30;;;3.83;;
17382;SDS011;8809;51.892;8.384;2022-07-26T07:46:58;6.38;;;3.90;;
17382;SDS011;8809;51.892;8.384;2022-07-26T07:49:25;8.40;;;4.50;;
17382;SDS011;8809;51.892;8.384;2022-07-26T07:51:52;6.68;;;3.95;;
17382;SDS011;8809;51.892;8.384;2022-07-26T07:54:21;6.90;;;4.00;;
17382;SDS011;8809;51.892;8.384;2022-07-26T07:56:48;7.72;;;3.85;;
17382;SDS011;8809;51.892;8.384;2022-07-26T07:59:16;6.32;;;4.15;;
17382;SDS011;8809;51.892;8.384;2022-07-26T08:01:43;6.55;;;4.03;;
17382;SDS011;8809;51.892;8.384;2022-07-26T08:04:10;7.05;;;4.70;;
17382;SDS011;8809;51.892;8.384;2022-07-26T08:06:37;9.02;;;5.05;;
17382;SDS011;8809;51.892;8.384;2022-07-26T08:09:04;6.85;;;4.53;;
17382;SDS011;8809;51.892;8.384;2022-07-26T08:11:33;8.48;;;4.22;;
17382;SDS011;8809;51.892;8.384;2022-07-26T08:14:00;7.72;;;5.88;;
17382;SDS011;8809;51.892;8.384;2022-07-26T08:16:27;5.82;;;5.20;;
17382;SDS011;8809;51.892;8.384;2022-07-26T08:18:55;6.78;;;5.00;;
17382;SDS011;8809;51.892;8.384;2022-07-26T08:21:22;8.60;;;5.13;;
17382;SDS011;8809;51.892;8.384;2022-07-26T08:23:49;5.53;;;4.95;;
17382;SDS011;8809;51.892;8.384;2022-07-26T08:26:16;10.35;;;6.20;;
17382;SDS011;8809;51.892;8.384;2022-07-26T08:28:45;7.40;;;5.75;;
17382;SDS011;8809;51.892;8.384;2022-07-26T08:31:12;9.57;;;5.22;;
17382;SDS011;8809;51.892;8.384;2022-07-26T08:33:39;5.07;;;4.60;;
17382;SDS011;8809;51.892;8.384;2022-07-26T08:36:06;5.00;;;4.53;;
17382;SDS011;8809;51.892;8.384;2022-07-26T08:38:34;7.28;;;6.50;;
17382;SDS011;8809;51.892;8.384;2022-07-26T08:41:01;9.02;;;6.70;;
17382;SDS011;8809;51.892;8.384;2022-07-26T08:43:28;9.10;;;6.10;;
17382;SDS011;8809;51.892;8.384;2022-07-26T08:46:00;7.78;;;5.57;;
17382;SDS011;8809;51.892;8.384;2022-07-26T08:48:27;5.45;;;4.63;;
17382;SDS011;8809;51.892;8.384;2022-07-26T08:50:55;6.63;;;5.43;;
17382;SDS011;8809;51.892;8.384;2022-07-26T08:53:22;9.35;;;5.55;;
17382;SDS011;8809;51.892;8.384;2022-07-26T08:55:53;9.73;;;6.80;;
17382;SDS011;8809;51.892;8.384;2022-07-26T08:58:22;7.03;;;6.32;;
17382;SDS011;8809;51.892;8.384;2022-07-26T09:00:52;6.80;;;6.13;;
17382;SDS011;8809;51.892;8.384;2022-07-26T09:03:30;7.72;;;6.00;;
17382;SDS011;8809;51.892;8.384;2022-07-26T09:06:09;6.32;;;5.70;;
17382;SDS011;8809;51.892;8.384;2022-07-26T09:08:38;6.30;;;5.40;;
17382;SDS011;8809;51.892;8.384;2022-07-26T09:13:58;6.57;;;5.80;;
17382;SDS011;8809;51.892;8.384;2022-07-26T09:16:28;6.35;;;5.65;;
17382;SDS011;8809;51.892;8.384;2022-07-26T09:19:12;5.75;;;4.82;;
17382;SDS011;8809;51.892;8.384;2022-07-26T09:21:41;5.03;;;4.63;;
17382;SDS011;8809;51.892;8.384;2022-07-26T09:24:09;8.55;;;5.10;;
17382;SDS011;8809;51.892;8.384;2022-07-26T09:26:36;7.43;;;5.53;;
17382;SDS011;8809;51.892;8.384;2022-07-26T09:29:05;6.80;;;5.10;;
17382;SDS011;8809;51.892;8.384;2022-07-26T09:31:35;6.28;;;5.10;;
17382;SDS011;8809;51.892;8.384;2022-07-26T09:34:03;6.65;;;5.30;;
17382;SDS011;8809;51.892;8.384;2022-07-26T09:36:31;5.63;;;5.10;;
17382;SDS011;8809;51.892;8.384;2022-07-26T09:39:00;5.93;;;4.25;;
17382;SDS011;8809;51.892;8.384;2022-07-26T09:41:29;4.20;;;3.80;;
17382;SDS011;8809;51.892;8.384;2022-07-26T09:43:58;2.88;;;2.60;;
17382;SDS011;8809;51.892;8.384;2022-07-26T09:46:27;2.53;;;2.20;;
17382;SDS011;8809;51.892;8.384;2022-07-26T09:48:57;4.00;;;1.90;;
17382;SDS011;8809;51.892;8.384;2022-07-26T09:51:41;3.92;;;1.80;;
17382;SDS011;8809;51.892;8.384;2022-07-26T09:54:11;4.50;;;2.20;;
17382;SDS011;8809;51.892;8.384;2022-07-26T09:56:45;2.70;;;1.48;;
17382;SDS011;8809;51.892;8.384;2022-07-26T09:59:14;2.17;;;1.65;;
17382;SDS011;8809;51.892;8.384;2022-07-26T10:01:41;2.03;;;1.60;;
17382;SDS011;8809;51.892;8.384;2022-07-26T10:04:10;2.03;;;1.73;;
17382;SDS011;8809;51.892;8.384;2022-07-26T10:06:38;3.63;;;1.80;;
17382;SDS011;8809;51.892;8.384;2022-07-26T10:09:05;2.67;;;1.48;;
17382;SDS011;8809;51.892;8.384;2022-07-26T10:11:35;2.90;;;1.50;;
17382;SDS011;8809;51.892;8.384;2022-07-26T10:26:00;2.95;;;1.65;;
17382;SDS011;8809;51.892;8.384;2022-07-26T10:28:30;2.17;;;1.52;;
17382;SDS011;8809;51.892;8.384;2022-07-26T10:33:55;2.17;;;1.60;;
17382;SDS011;8809;51.892;8.384;2022-07-26T10:36:26;3.22;;;2.05;;
17382;SDS011;8809;51.892;8.384;2022-07-26T10:38:59;3.70;;;2.08;;
17382;SDS011;8809;51.892;8.384;2022-07-26T10:41:30;3.25;;;1.83;;
17382;SDS011;8809;51.892;8.384;2022-07-26T10:44:12;2.58;;;1.80;;
17382;SDS011;8809;51.892;8.384;2022-07-26T10:49:40;3.20;;;1.88;;
17382;SDS011;8809;51.892;8.384;2022-07-26T10:52:13;2.08;;;1.88;;
17382;SDS011;8809;51.892;8.384;2022-07-26T10:55:03;2.38;;;1.60;;
17382;SDS011;8809;51.892;8.384;2022-07-26T10:57:32;2.72;;;1.75;;
17382;SDS011;8809;51.892;8.384;2022-07-26T11:00:01;1.50;;;1.40;;
17382;SDS011;8809;51.892;8.384;2022-07-26T11:02:38;4.95;;;2.20;;
17382;SDS011;8809;51.892;8.384;2022-07-26T11:05:07;1.90;;;1.70;;
17382;SDS011;8809;51.892;8.384;2022-07-26T11:10:30;3.28;;;1.88;;
17382;SDS011;8809;51.892;8.384;2022-07-26T11:13:07;2.38;;;1.88;;
17382;SDS011;8809;51.892;8.384;2022-07-26T11:15:36;3.70;;;2.00;;
17382;SDS011;8809;51.892;8.384;2022-07-26T11:18:16;3.22;;;1.88;;
17382;SDS011;8809;51.892;8.384;2022-07-26T11:20:49;3.08;;;1.67;;
17382;SDS011;8809;51.892;8.384;2022-07-26T11:23:20;2.60;;;1.40;;
17382;SDS011;8809;51.892;8.384;2022-07-26T11:31:26;1.33;;;1.23;;
17382;SDS011;8809;51.892;8.384;2022-07-26T11:34:00;1.98;;;0.90;;
17382;SDS011;8809;51.892;8.384;2022-07-26T11:36:34;1.40;;;1.15;;
17382;SDS011;8809;51.892;8.384;2022-07-26T11:39:05;1.67;;;0.98;;
17382;SDS011;8809;51.892;8.384;2022-07-26T11:41:34;1.38;;;0.98;;
17382;SDS011;8809;51.892;8.384;2022-07-26T11:44:02;1.15;;;0.80;;
17382;SDS011;8809;51.892;8.384;2022-07-26T11:46:34;2.15;;;0.90;;
17382;SDS011;8809;51.892;8.384;2022-07-26T11:49:12;1.00;;;0.80;;
17382;SDS011;8809;51.892;8.384;2022-07-26T11:51:46;1.35;;;0.90;;
17382;SDS011;8809;51.892;8.384;2022-07-26T11:54:16;0.82;;;0.65;;
17382;SDS011;8809;51.892;8.384;2022-07-26T11:56:50;1.23;;;0.90;;
17382;SDS011;8809;51.892;8.384;2022-07-26T11:59:19;0.52;;;0.47;;
17382;SDS011;8809;51.892;8.384;2022-07-26T12:01:47;1.00;;;0.88;;
17382;SDS011;8809;51.892;8.384;2022-07-26T12:04:18;1.27;;;0.70;;
17382;SDS011;8809;51.892;8.384;2022-07-26T12:06:49;0.98;;;0.77;;
17382;SDS011;8809;51.892;8.384;2022-07-26T12:09:31;2.50;;;0.80;;
17382;SDS011;8809;51.892;8.384;2022-07-26T12:11:59;1.83;;;0.90;;
17382;SDS011;8809;51.892;8.384;2022-07-26T12:14:27;1.55;;;1.00;;
17382;SDS011;8809;51.892;8.384;2022-07-26T12:16:55;1.95;;;1.10;;
17382;SDS011;8809;51.892;8.384;2022-07-26T12:19:24;1.05;;;0.73;;
17382;SDS011;8809;51.892;8.384;2022-07-26T12:21:53;1.48;;;0.73;;
17382;SDS011;8809;51.892;8.384;2022-07-26T12:24:39;1.58;;;0.90;;
17382;SDS011;8809;51.892;8.384;2022-07-26T12:27:10;1.02;;;0.88;;
17382;SDS011;8809;51.892;8.384;2022-07-26T12:29:39;1.75;;;1.10;;
17382;SDS011;8809;51.892;8.384;2022-07-26T12:32:09;1.40;;;0.98;;
17382;SDS011;8809;51.892;8.384;2022-07-26T12:34:39;2.28;;;1.38;;
17382;SDS011;8809;51.892;8.384;2022-07-26T12:37:07;3.38;;;1.20;;
17382;SDS011;8809;51.892;8.384;2022-07-26T12:39:36;1.33;;;1.23;;
17382;SDS011;8809;51.892;8.384;2022-07-26T12:44:47;0.73;;;0.73;;
17382;SDS011;8809;51.892;8.384;2022-07-26T12:47:14;2.17;;;0.93;;
17382;SDS011;8809;51.892;8.384;2022-07-26T12:49:41;0.88;;;0.70;;
17382;SDS011;8809;51.892;8.384;2022-07-26T12:52:11;0.73;;;0.70;;
17382;SDS011;8809;51.892;8.384;2022-07-26T12:54:39;0.82;;;0.70;;
17382;SDS011;8809;51.892;8.384;2022-07-26T12:57:07;0.93;;;0.75;;
17382;SDS011;8809;51.892;8.384;2022-07-26T12:59:36;1.40;;;0.88;;
17382;SDS011;8809;51.892;8.384;2022-07-26T13:02:03;1.50;;;0.90;;
17382;SDS011;8809;51.892;8.384;2022-07-26T13:04:30;0.73;;;0.60;;
17382;SDS011;8809;51.892;8.384;2022-07-26T13:06:57;0.63;;;0.63;;
17382;SDS011;8809;51.892;8.384;2022-07-26T13:09:25;0.60;;;0.60;;
17382;SDS011;8809;51.892;8.384;2022-07-26T13:11:52;0.60;;;0.60;;
17382;SDS011;8809;51.892;8.384;2022-07-26T13:14:19;1.67;;;1.10;;
17382;SDS011;8809;51.892;8.384;2022-07-26T13:16:48;2.40;;;1.13;;
17382;SDS011;8809;51.892;8.384;2022-07-26T13:19:15;1.20;;;1.08;;
17382;SDS011;8809;51.892;8.384;2022-07-26T13:21:42;1.05;;;0.90;;
17382;SDS011;8809;51.892;8.384;2022-07-26T13:24:09;1.55;;;1.15;;
17382;SDS011;8809;51.892;8.384;2022-07-26T13:26:36;1.75;;;1.10;;
17382;SDS011;8809;51.892;8.384;2022-07-26T13:29:03;2.53;;;1.35;;
17382;SDS011;8809;51.892;8.384;2022-07-26T13:31:31;1.67;;;1.23;;
17382;SDS011;8809;51.892;8.384;2022-07-26T13:33:59;1.60;;;1.13;;
17382;SDS011;8809;51.892;8.384;2022-07-26T13:36:27;1.88;;;1.13;;
17382;SDS011;8809;51.892;8.384;2022-07-26T13:38:54;2.20;;;1.30;;
17382;SDS011;8809;51.892;8.384;2022-07-26T13:41:21;2.80;;;1.30;;
17382;SDS011;8809;51.892;8.384;2022-07-26T13:43:49;1.52;;;1.00;;
17382;SDS011;8809;51.892;8.384;2022-07-26T13:46:18;1.45;;;1.10;;
17382;SDS011;8809;51.892;8.384;2022-07-26T13:48:46;1.58;;;1.10;;
17382;SDS011;8809;51.892;8.384;2022-07-26T13:51:14;2.38;;;0.90;;
17382;SDS011;8809;51.892;8.384;2022-07-26T13:53:42;1.00;;;0.90;;
17382;SDS011;8809;51.892;8.384;2022-07-26T13:56:10;2.33;;;1.00;;
17382;SDS011;8809;51.892;8.384;2022-07-26T13:58:37;2.78;;;1.02;;
17382;SDS011;8809;51.892;8.384;2022-07-26T14:01:04;1.23;;;0.82;;
17382;SDS011;8809;51.892;8.384;2022-07-26T14:03:31;1.33;;;1.00;;
17382;SDS011;8809;51.892;8.384;2022-07-26T14:05:58;0.70;;;0.70;;
17382;SDS011;8809;51.892;8.384;2022-07-26T14:08:27;0.90;;;0.90;;
17382;SDS011;8809;51.892;8.384;2022-07-26T14:10:54;1.08;;;1.00;;
17382;SDS011;8809;51.892;8.384;2022-07-26T14:13:21;1.70;;;1.38;;
17382;SDS011;8809;51.892;8.384;2022-07-26T14:15:48;1.42;;;1.17;;
17382;SDS011;8809;51.892;8.384;2022-07-26T14:18:16;0.90;;;0.80;;
17382;SDS011;8809;51.892;8.384;2022-07-26T14:20:43;1.52;;;1.08;;
17382;SDS011;8809;51.892;8.384;2022-07-26T14:23:10;1.40;;;1.20;;
17382;SDS011;8809;51.892;8.384;2022-07-26T14:25:39;1.30;;;1.08;;
17382;SDS011;8809;51.892;8.384;2022-07-26T14:28:06;1.30;;;0.95;;
17382;SDS011;8809;51.892;8.384;2022-07-26T14:30:33;4.72;;;1.80;;
17382;SDS011;8809;51.892;8.384;2022-07-26T14:33:01;0.93;;;0.93;;
17382;SDS011;8809;51.892;8.384;2022-07-26T14:35:29;1.38;;;1.27;;
17382;SDS011;8809;51.892;8.384;2022-07-26T14:37:56;1.00;;;0.90;;
17382;SDS011;8809;51.892;8.384;2022-07-26T14:40:23;1.20;;;1.10;;
17382;SDS011;8809;51.892;8.384;2022-07-26T14:42:52;1.48;;;1.10;;
17382;SDS011;8809;51.892;8.384;2022-07-26T14:45:19;1.85;;;0.98;;
17382;SDS011;8809;51.892;8.384;2022-07-26T14:47:46;1.25;;;0.90;;
17382;SDS011;8809;51.892;8.384;2022-07-26T14:50:13;1.20;;;1.00;;
17382;SDS011;8809;51.892;8.384;2022-07-26T14:52:42;1.92;;;1.10;;
17382;SDS011;8809;51.892;8.384;2022-07-26T14:55:13;0.77;;;0.63;;
17382;SDS011;8809;51.892;8.384;2022-07-26T14:57:41;0.88;;;0.85;;
17382;SDS011;8809;51.892;8.384;2022-07-26T15:00:11;1.17;;;1.05;;
17382;SDS011;8809;51.892;8.384;2022-07-26T15:02:40;1.35;;;1.00;;
17382;SDS011;8809;51.892;8.384;2022-07-26T15:05:08;0.73;;;0.60;;
17382;SDS011;8809;51.892;8.384;2022-07-26T15:07:36;1.42;;;1.00;;
17382;SDS011;8809;51.892;8.384;2022-07-26T15:10:06;1.83;;;1.05;;
17382;SDS011;8809;51.892;8.384;2022-07-26T15:12:35;1.90;;;1.70;;
17382;SDS011;8809;51.892;8.384;2022-07-26T15:15:03;1.90;;;1.33;;
17382;SDS011;8809;51.892;8.384;2022-07-26T15:17:32;3.28;;;2.10;;
17382;SDS011;8809;51.892;8.384;2022-07-26T15:19:59;3.83;;;1.80;;
17382;SDS011;8809;51.892;8.384;2022-07-26T15:22:29;2.55;;;1.50;;
17382;SDS011;8809;51.892;8.384;2022-07-26T15:24:56;1.75;;;1.30;;
17382;SDS011;8809;51.892;8.384;2022-07-26T15:27:23;1.35;;;1.17;;
17382;SDS011;8809;51.892;8.384;2022-07-26T15:29:50;1.45;;;0.90;;
17382;SDS011;8809;51.892;8.384;2022-07-26T15:32:18;1.65;;;1.02;;
17382;SDS011;8809;51.892;8.384;2022-07-26T15:34:47;1.10;;;1.00;;
17382;SDS011;8809;51.892;8.384;2022-07-26T15:37:16;2.10;;;1.50;;
17382;SDS011;8809;51.892;8.384;2022-07-26T15:39:43;1.25;;;1.10;;